createdAt,value
2019-01-21T00:03:21.910Z,37.03
2019-01-21T00:08:30.652Z,35.13
2019-01-21T00:13:38.294Z,36.03
2019-01-21T00:18:46.087Z,41.10
2019-01-21T00:23:54.102Z,38.17
2019-01-21T00:29:02.327Z,38.37
2019-01-21T00:34:10.124Z,40.43
2019-01-21T00:39:16.282Z,40.77
2019-01-21T00:44:23.288Z,39.80
2019-01-21T00:49:30.667Z,38.17
2019-01-21T00:54:37.554Z,39.53
2019-01-21T00:59:43.916Z,41.43
2019-01-21T01:04:51.660Z,40.60
2019-01-21T01:09:58.672Z,39.27
2019-01-21T01:15:07.022Z,38.70
2019-01-21T01:20:16.594Z,41.60
2019-01-21T01:25:24.778Z,44.70
2019-01-21T01:30:34.136Z,41.83
2019-01-21T01:35:42.152Z,40.23
2019-01-21T01:40:48.798Z,42.20
2019-01-21T01:45:56.454Z,44.30
2019-01-21T01:51:03.643Z,41.33
2019-01-21T01:56:13.996Z,40.53
2019-01-21T02:01:24.136Z,50.33
2019-01-21T02:06:30.181Z,46.53
2019-01-21T02:11:36.975Z,43.57
2019-01-21T02:16:45.531Z,42.43
2019-01-21T02:21:55.651Z,43.43
2019-01-21T02:27:06.798Z,40.20
2019-01-21T02:32:34.261Z,42.13
2019-01-21T02:38:09.977Z,41.10
2019-01-21T02:43:27.046Z,40.87
2019-01-21T02:48:48.932Z,42.40
2019-01-21T02:54:11.729Z,42.53
2019-01-21T02:59:24.347Z,46.63
2019-01-21T03:04:51.667Z,41.33
2019-01-21T03:10:11.859Z,44.43
2019-01-21T03:15:22.845Z,42.23
2019-01-21T03:20:38.918Z,43.63
2019-01-21T03:26:13.552Z,46.97
2019-01-21T03:31:34.720Z,51.53
2019-01-21T03:37:03.012Z,47.70
2019-01-21T03:42:17.972Z,40.50
2019-01-21T03:47:34.559Z,57.90
2019-01-21T03:53:01.314Z,45.47
2019-01-21T03:58:19.838Z,45.70
2019-01-21T04:03:47.892Z,45.67
2019-01-21T04:08:57.748Z,45.23
2019-01-21T04:14:13.750Z,46.83
2019-01-21T04:19:39.216Z,44.33
2019-01-21T04:25:00.888Z,42.30
2019-01-21T04:30:19.456Z,43.27
2019-01-21T04:35:50.224Z,46.90
2019-01-21T04:41:06.296Z,46.20
2019-01-21T04:46:33.923Z,44.93
2019-01-21T04:51:52.079Z,44.23
2019-01-21T04:57:22.707Z,41.93
2019-01-21T05:02:55.948Z,49.30
2019-01-21T05:08:22.489Z,45.67
2019-01-21T05:14:06.397Z,42.20
2019-01-21T05:19:28.431Z,42.43
2019-01-21T05:24:51.529Z,45.53
2019-01-21T05:30:10.220Z,41.70
2019-01-21T05:35:55.341Z,40.00
2019-01-21T05:41:12.034Z,40.10
2019-01-21T05:46:43.754Z,40.10
2019-01-21T05:52:14.856Z,47.07
2019-01-21T05:57:44.109Z,48.13
2019-01-21T06:03:23.124Z,45.73
2019-01-21T06:08:48.158Z,39.20
2019-01-21T06:14:00.363Z,43.27
2019-01-21T06:19:10.805Z,42.43
2019-01-21T06:24:43.266Z,45.27
2019-01-21T06:29:58.814Z,41.53
2019-01-21T06:35:26.201Z,49.20
2019-01-21T06:40:50.064Z,45.73
2019-01-21T06:46:24.206Z,43.00
2019-01-21T06:51:41.220Z,46.37
2019-01-21T06:57:08.571Z,44.63
2019-01-21T07:02:19.643Z,44.00
2019-01-21T07:07:41.372Z,54.50
2019-01-21T07:13:07.794Z,53.67
2019-01-21T07:18:26.092Z,52.27
2019-01-21T07:23:44.399Z,46.33
2019-01-21T07:34:29.057Z,43.63
2019-01-21T07:39:44.340Z,44.73
2019-01-21T07:45:17.867Z,44.67
2019-01-21T07:50:38.673Z,42.47
2019-01-21T07:56:09.365Z,48.00
2019-01-21T08:01:38.069Z,44.80
2019-01-21T08:07:26.478Z,42.87
2019-01-21T08:12:44.562Z,44.67
2019-01-21T08:17:59.062Z,39.13
2019-01-21T08:23:13.670Z,49.70
2019-01-21T08:28:48.468Z,43.57
2019-01-21T08:34:04.807Z,46.37
2019-01-21T08:39:53.667Z,43.53
2019-01-21T08:45:31.396Z,41.67
2019-01-21T08:50:44.169Z,50.60
2019-01-21T08:56:03.558Z,47.43
2019-01-21T09:01:46.237Z,48.50
2019-01-21T09:07:04.752Z,46.37
2019-01-21T09:12:34.480Z,50.57
2019-01-21T09:17:50.696Z,50.87
2019-01-21T09:23:22.825Z,47.87
2019-01-21T09:28:49.396Z,44.80
2019-01-21T09:34:06.682Z,51.70
2019-01-21T09:39:20.078Z,48.93
2019-01-21T09:44:42.321Z,51.43
2019-01-21T09:49:53.529Z,48.07
2019-01-21T09:55:03.774Z,51.40
2019-01-21T10:00:19.028Z,48.37
2019-01-21T10:05:34.887Z,49.47
2019-01-21T10:11:03.572Z,46.87
2019-01-21T10:16:16.121Z,48.97
2019-01-21T10:21:52.347Z,52.43
2019-01-21T10:27:15.770Z,52.73
2019-01-21T10:32:33.408Z,54.70
2019-01-21T10:38:14.951Z,46.10
2019-01-21T10:43:37.287Z,58.63
2019-01-21T10:48:59.599Z,54.47
2019-01-21T10:54:23.933Z,61.40
2019-01-21T10:59:44.549Z,60.97
2019-01-21T11:04:56.539Z,57.63
2019-01-21T11:10:22.000Z,57.90
2019-01-21T11:15:34.027Z,57.73
2019-01-21T11:21:04.026Z,65.50
2019-01-21T11:26:30.005Z,62.83
2019-01-21T11:31:58.043Z,57.90
2019-01-21T11:37:09.549Z,56.13
2019-01-21T11:42:24.802Z,57.70
2019-01-21T11:47:59.413Z,60.80
2019-01-21T11:53:17.722Z,56.40
2019-01-21T11:58:42.003Z,62.27
2019-01-21T12:03:57.886Z,53.57
2019-01-21T12:09:11.184Z,59.37
2019-01-21T12:14:51.526Z,59.20
2019-01-21T12:20:17.483Z,56.83
2019-01-21T12:25:27.665Z,53.13
2019-01-21T12:30:45.640Z,55.10
2019-01-21T12:36:01.831Z,55.50
2019-01-21T12:41:47.874Z,55.33
2019-01-21T12:47:17.067Z,52.93
2019-01-21T12:52:35.217Z,53.97
2019-01-21T12:58:01.465Z,54.27
2019-01-21T13:03:29.938Z,51.53
2019-01-21T13:08:44.631Z,53.70
2019-01-21T13:14:09.862Z,53.00
2019-01-21T13:19:26.502Z,56.97
2019-01-21T13:24:39.104Z,57.57
2019-01-21T13:29:48.091Z,58.57
2019-01-21T13:35:19.894Z,53.50
2019-01-21T13:40:52.149Z,56.93
2019-01-21T13:46:31.859Z,54.23
2019-01-21T13:52:06.606Z,63.77
2019-01-21T13:57:35.576Z,59.47
2019-01-21T14:02:48.968Z,58.97
2019-01-21T14:08:06.870Z,55.30
2019-01-21T14:13:16.945Z,54.17
2019-01-21T14:18:33.213Z,58.40
2019-01-21T14:23:48.530Z,56.50
2019-01-21T14:29:16.033Z,56.97
2019-01-21T14:34:34.008Z,53.73
2019-01-21T14:39:44.640Z,50.50
2019-01-21T14:45:19.340Z,53.00
2019-01-21T14:50:51.420Z,52.57
2019-01-21T14:56:17.232Z,50.77
2019-01-21T15:01:40.703Z,52.57
2019-01-21T15:07:00.881Z,54.63
2019-01-21T15:12:31.417Z,49.33
2019-01-21T15:18:04.061Z,53.67
2019-01-21T15:23:32.282Z,48.57
2019-01-21T15:28:47.644Z,50.70
2019-01-21T15:34:06.323Z,50.13
2019-01-21T15:39:19.970Z,55.33
2019-01-21T15:44:38.342Z,55.03
2019-01-21T15:49:50.230Z,56.70
2019-01-21T15:55:04.456Z,62.33
2019-01-21T16:00:23.900Z,56.17
2019-01-21T16:05:32.615Z,57.27
2019-01-21T16:11:03.976Z,58.60
2019-01-21T16:16:20.188Z,60.90
2019-01-21T16:21:58.407Z,62.17
2019-01-21T16:27:27.624Z,70.60
2019-01-21T16:32:35.035Z,68.53
2019-01-21T16:37:49.933Z,65.30
2019-01-21T16:42:56.523Z,65.50
2019-01-21T16:48:07.939Z,64.60
2019-01-21T16:53:15.884Z,64.00
2019-01-21T16:58:21.981Z,68.27
2019-01-21T17:03:29.729Z,66.57
2019-01-21T17:08:38.352Z,66.77
2019-01-21T17:13:45.750Z,70.27
2019-01-21T17:18:53.542Z,72.93
2019-01-21T17:23:59.441Z,65.47
2019-01-21T17:29:06.102Z,66.83
2019-01-21T17:34:12.040Z,67.97
2019-01-21T17:39:20.679Z,71.87
2019-01-21T17:44:26.903Z,70.63
2019-01-21T17:49:33.488Z,68.50
2019-01-21T17:54:41.934Z,70.73
2019-01-21T17:59:47.687Z,73.23
2019-01-21T18:04:53.318Z,72.80
2019-01-21T18:09:59.531Z,80.97
2019-01-21T18:15:09.502Z,79.00
2019-01-21T18:20:21.089Z,72.00
2019-01-21T18:25:30.628Z,79.67
2019-01-21T18:30:38.673Z,81.87
2019-01-21T18:35:46.829Z,73.43
2019-01-21T18:40:53.470Z,78.47
2019-01-21T18:46:00.356Z,77.93
2019-01-21T18:51:06.454Z,83.63
2019-01-21T18:56:13.242Z,74.33
2019-01-21T19:01:20.121Z,73.03
2019-01-21T19:06:26.095Z,76.50
2019-01-21T19:11:33.002Z,75.87
2019-01-21T19:16:39.257Z,71.33
2019-01-21T19:21:45.631Z,75.30
2019-01-21T19:26:51.616Z,71.63
2019-01-21T19:31:59.604Z,76.93
2019-01-21T19:37:05.608Z,71.63
2019-01-21T19:42:12.172Z,75.23
2019-01-21T19:47:19.336Z,75.47
2019-01-21T19:52:26.176Z,75.70
2019-01-21T19:57:32.056Z,69.83
2019-01-21T20:02:38.164Z,79.77
2019-01-21T20:07:44.360Z,79.10
2019-01-21T20:12:50.525Z,68.53
2019-01-21T20:17:58.833Z,74.97
2019-01-21T20:23:05.596Z,75.50
2019-01-21T20:28:11.860Z,71.87
2019-01-21T20:33:19.590Z,72.47
2019-01-21T20:38:25.315Z,74.87
2019-01-21T20:43:33.506Z,82.87
2019-01-21T20:48:42.220Z,75.93
2019-01-21T20:53:49.634Z,78.57
2019-01-21T20:58:55.305Z,74.27
2019-01-21T21:04:01.627Z,82.40
2019-01-21T21:09:09.309Z,80.57
2019-01-21T21:14:15.273Z,76.23
2019-01-21T21:19:21.655Z,76.73
2019-01-21T21:24:31.444Z,79.27
2019-01-21T21:29:38.604Z,77.77
2019-01-21T21:34:45.662Z,76.90
2019-01-21T21:39:54.396Z,86.17
2019-01-21T21:45:05.670Z,80.03
2019-01-21T21:50:26.356Z,79.27
2019-01-21T21:55:32.812Z,78.67
2019-01-21T22:00:39.382Z,72.30
2019-01-21T22:05:45.938Z,82.10
2019-01-21T22:10:53.448Z,80.83
2019-01-21T22:16:02.968Z,77.70
2019-01-21T22:21:11.193Z,80.53
2019-01-21T22:26:17.991Z,81.77
2019-01-21T22:31:24.801Z,85.77
2019-01-21T22:36:32.032Z,89.77
2019-01-21T22:41:39.541Z,84.37
2019-01-21T22:46:45.603Z,91.63
2019-01-21T22:51:53.156Z,86.90
2019-01-21T22:56:59.521Z,87.80
2019-01-21T23:02:07.284Z,86.03
2019-01-21T23:07:14.735Z,76.03
2019-01-21T23:12:22.547Z,74.73
2019-01-21T23:17:30.367Z,78.93
2019-01-21T23:22:37.953Z,73.50
2019-01-21T23:27:44.236Z,75.87
2019-01-21T23:32:50.841Z,82.83
2019-01-21T23:37:58.091Z,74.90
2019-01-21T23:43:06.002Z,70.90
2019-01-21T23:48:13.017Z,80.00
2019-01-21T23:53:20.042Z,78.07
2019-01-21T23:58:26.791Z,84.23
